Time;durP1;ratioP1;P1;durP2;ratioP2;P2;SDS_P1;SDS_P2;PMS_P1;PMS_P2;Temp;Humidity;BMP_temperature;BMP_pressure;BME280_temperature;BME280_humidity;BME280_pressure;Samples;Min_cycle;Max_cycle;Signal;HPM_P1;HPM_P2
2023/07/26 00:00:22;;;;;;;5.93;3.00;;;15.40;99.90;;;;;;5113777;28;20178;-53
2023/07/26 00:02:47;;;;;;;4.28;3.35;;;15.40;99.90;;;;;;5114220;28;20169;-54
2023/07/26 00:05:13;;;;;;;6.70;3.50;;;15.50;99.90;;;;;;5113755;28;20184;-58
2023/07/26 00:07:39;;;;;;;6.45;3.40;;;15.40;99.90;;;;;;5113654;28;20204;-53
2023/07/26 00:10:04;;;;;;;5.45;3.10;;;15.40;99.90;;;;;;5113418;28;20634;-53
2023/07/26 00:12:30;;;;;;;3.72;3.30;;;15.40;99.90;;;;;;5113596;28;20226;-51
2023/07/26 00:14:56;;;;;;;4.82;3.22;;;15.20;99.90;;;;;;5113645;28;20215;-51
2023/07/26 00:17:21;;;;;;;4.30;3.10;;;15.20;99.90;;;;;;5113639;28;20677;-53
2023/07/26 00:19:47;;;;;;;3.63;3.00;;;15.10;99.90;;;;;;5113633;28;20615;-53
2023/07/26 00:22:13;;;;;;;5.32;4.82;;;15.10;99.90;;;;;;5113571;28;20177;-51
2023/07/26 00:24:38;;;;;;;5.95;3.15;;;15.20;99.90;;;;;;5113651;28;20177;-52
2023/07/26 00:27:04;;;;;;;4.57;3.38;;;15.20;99.90;;;;;;5113530;28;20208;-52
2023/07/26 00:29:30;;;;;;;364.42;40.63;;;15.10;99.90;;;;;;5113483;28;20272;-51
2023/07/26 00:31:56;;;;;;;3.17;2.85;;;15.10;99.90;;;;;;5113652;28;20256;-52
2023/07/26 00:34:22;;;;;;;3.72;2.58;;;15.10;99.90;;;;;;5113442;28;20260;-52
2023/07/26 00:36:47;;;;;;;5.15;2.90;;;15.00;99.90;;;;;;5113440;28;20177;-53
2023/07/26 00:39:14;;;;;;;3.45;3.15;;;15.10;99.90;;;;;;5113452;28;20752;-54
2023/07/26 00:41:39;;;;;;;4.32;3.17;;;15.10;99.90;;;;;;5113153;28;20169;-53
2023/07/26 00:44:05;;;;;;;4.75;2.88;;;15.10;99.90;;;;;;5113412;28;20634;-52
2023/07/26 00:46:31;;;;;;;4.35;2.95;;;15.00;99.90;;;;;;5114319;28;20331;-53
2023/07/26 00:48:58;;;;;;;6.38;3.35;;;15.00;99.90;;;;;;5116793;28;20177;-53
2023/07/26 00:51:25;;;;;;;6.15;3.15;;;14.90;99.90;;;;;;5117066;28;20177;-51
2023/07/26 00:53:51;;;;;;;3.72;2.72;;;14.90;99.90;;;;;;5117008;27;20169;-50
2023/07/26 00:56:17;;;;;;;4.50;2.92;;;14.80;99.90;;;;;;5116972;28;20188;-53
2023/07/26 00:58:47;;;;;;;4.85;3.35;;;14.70;99.90;;;;;;5117122;28;20265;-53
2023/07/26 01:01:13;;;;;;;4.68;3.22;;;14.70;99.90;;;;;;5116818;28;20173;-52
2023/07/26 01:03:38;;;;;;;4.40;3.03;;;14.70;99.90;;;;;;5116811;28;20177;-48
2023/07/26 01:06:26;;;;;;;4.68;3.00;;;14.70;99.90;;;;;;5116688;28;20208;-52
2023/07/26 01:09:01;;;;;;;3.35;3.05;;;14.70;99.90;;;;;;5116788;28;20222;-51
2023/07/26 01:11:39;;;;;;;4.47;2.92;;;14.60;99.90;;;;;;5116981;28;20221;-50
2023/07/26 01:14:15;;;;;;;4.70;3.17;;;14.70;99.90;;;;;;5116501;28;20526;-53
2023/07/26 01:16:42;;;;;;;4.30;3.50;;;14.60;99.90;;;;;;5116623;28;20171;-51
2023/07/26 01:19:07;;;;;;;6.03;3.78;;;14.50;99.90;;;;;;5116449;28;20217;-53
2023/07/26 01:21:33;;;;;;;4.53;3.35;;;14.70;99.90;;;;;;5116515;28;20177;-50
2023/07/26 01:23:59;;;;;;;4.60;3.30;;;14.60;99.90;;;;;;5116110;28;20696;-48
2023/07/26 01:26:25;;;;;;;3.30;3.00;;;14.60;99.90;;;;;;5116175;28;20204;-53
2023/07/26 01:28:50;;;;;;;4.53;3.70;;;14.60;99.90;;;;;;5116346;28;20173;-49
2023/07/26 01:31:18;;;;;;;5.03;3.40;;;14.50;99.90;;;;;;5116305;28;20200;-51
2023/07/26 01:33:48;;;;;;;4.70;3.55;;;14.60;99.90;;;;;;5116296;28;20165;-53
2023/07/26 01:36:15;;;;;;;4.40;3.53;;;14.50;99.90;;;;;;5116195;28;20169;-50
2023/07/26 01:38:42;;;;;;;4.90;3.30;;;14.60;99.90;;;;;;5116186;28;20225;-48
2023/07/26 01:41:09;;;;;;;5.53;3.63;;;14.50;99.90;;;;;;5116388;28;20165;-54
2023/07/26 01:43:36;;;;;;;5.85;3.78;;;14.50;99.90;;;;;;5116086;27;20248;-53
2023/07/26 01:46:02;;;;;;;5.05;4.00;;;14.50;99.90;;;;;;5115899;28;20652;-54
2023/07/26 01:48:27;;;;;;;5.18;3.58;;;14.50;99.90;;;;;;5115911;28;20220;-52
2023/07/26 01:50:53;;;;;;;5.40;3.53;;;14.50;99.90;;;;;;5115609;28;20169;-51
2023/07/26 01:53:19;;;;;;;4.65;3.72;;;14.50;99.90;;;;;;5115817;28;20523;-53
2023/07/26 01:55:44;;;;;;;4.47;3.85;;;14.60;99.90;;;;;;5115758;28;20521;-52
2023/07/26 01:58:10;;;;;;;4.32;3.42;;;14.50;99.90;;;;;;5114921;28;20256;-53
2023/07/26 02:00:36;;;;;;;5.13;3.83;;;14.50;99.90;;;;;;5115430;28;20180;-51
2023/07/26 02:03:01;;;;;;;4.35;3.30;;;14.40;99.90;;;;;;5115676;28;20561;-49
2023/07/26 02:05:27;;;;;;;5.70;3.60;;;14.40;99.90;;;;;;5115619;28;20649;-48
2023/07/26 02:07:52;;;;;;;4.57;3.70;;;14.40;99.90;;;;;;5115503;28;20200;-51
2023/07/26 02:10:18;;;;;;;4.18;3.50;;;14.30;99.90;;;;;;5115512;28;20237;-51
2023/07/26 02:12:44;;;;;;;5.75;4.10;;;14.30;99.90;;;;;;5115507;28;20178;-50
2023/07/26 02:15:09;;;;;;;4.30;3.72;;;14.30;99.90;;;;;;5115402;28;20169;-52
2023/07/26 02:17:35;;;;;;;4.55;3.70;;;14.20;99.90;;;;;;5115403;28;20180;-48
2023/07/26 02:20:01;;;;;;;3.97;3.58;;;14.10;99.90;;;;;;5115607;28;20685;-49
2023/07/26 02:22:26;;;;;;;6.93;4.13;;;14.10;99.90;;;;;;5115262;28;20181;-53
2023/07/26 02:24:52;;;;;;;5.60;3.80;;;14.00;99.90;;;;;;5115231;28;20177;-51
2023/07/26 02:27:17;;;;;;;4.78;3.92;;;14.00;99.90;;;;;;5115131;28;20254;-50
2023/07/26 02:29:43;;;;;;;5.60;3.88;;;14.00;99.90;;;;;;5115176;28;20174;-52
2023/07/26 02:32:09;;;;;;;5.15;3.70;;;13.90;99.90;;;;;;5115090;28;20169;-50
2023/07/26 02:34:36;;;;;;;7.55;3.80;;;13.90;99.90;;;;;;5115360;28;20525;-51
2023/07/26 02:37:02;;;;;;;4.60;3.72;;;13.90;99.90;;;;;;5114968;28;20188;-53
2023/07/26 02:39:28;;;;;;;4.32;3.78;;;14.00;99.90;;;;;;5114951;28;20169;-52
2023/07/26 02:41:53;;;;;;;6.00;3.95;;;13.90;99.90;;;;;;5114970;28;20252;-51
2023/07/26 02:44:19;;;;;;;5.85;4.47;;;13.80;99.90;;;;;;5114563;28;20169;-49
2023/07/26 02:46:45;;;;;;;5.28;4.38;;;13.90;99.90;;;;;;5114485;28;20197;-49
2023/07/26 02:49:10;;;;;;;5.05;4.00;;;14.00;99.90;;;;;;5114660;28;20177;-53
2023/07/26 02:51:36;;;;;;;4.45;3.85;;;13.90;99.90;;;;;;5115023;28;20243;-53
2023/07/26 02:54:01;;;;;;;4.75;4.00;;;13.90;99.90;;;;;;5114386;28;20204;-49
2023/07/26 02:56:27;;;;;;;5.88;4.43;;;13.80;99.90;;;;;;5114759;28;20264;-50
2023/07/26 02:58:53;;;;;;;4.78;3.92;;;13.80;99.90;;;;;;5114800;28;20161;-51
2023/07/26 03:01:18;;;;;;;4.40;4.00;;;13.80;99.90;;;;;;5114586;28;20173;-53
2023/07/26 03:03:44;;;;;;;4.72;4.10;;;13.80;99.90;;;;;;5114309;28;20181;-52
2023/07/26 03:06:11;;;;;;;4.57;4.10;;;13.80;99.90;;;;;;5114371;28;20242;-50
2023/07/26 03:08:37;;;;;;;5.93;3.83;;;13.80;99.90;;;;;;5114625;28;20177;-52
2023/07/26 03:11:02;;;;;;;6.45;4.45;;;13.90;99.90;;;;;;5113613;28;20184;-51
2023/07/26 03:13:28;;;;;;;6.07;4.53;;;13.80;99.90;;;;;;5114574;28;20229;-49
2023/07/26 03:15:54;;;;;;;5.70;4.65;;;13.80;99.90;;;;;;5114287;28;20169;-53
2023/07/26 03:18:19;;;;;;;5.72;4.45;;;13.80;99.90;;;;;;5114072;28;20180;-49
2023/07/26 03:20:48;;;;;;;5.93;4.50;;;13.70;99.90;;;;;;5114051;28;20521;-50
2023/07/26 03:23:17;;;;;;;7.07;4.53;;;13.70;99.90;;;;;;5114234;28;20287;-50
2023/07/26 03:25:43;;;;;;;6.85;4.20;;;13.70;99.90;;;;;;5113877;28;20174;-50
2023/07/26 03:28:09;;;;;;;5.20;4.70;;;13.70;99.90;;;;;;5114140;28;20180;-50
2023/07/26 03:30:34;;;;;;;5.70;5.00;;;13.80;99.90;;;;;;5113955;28;20252;-50
2023/07/26 03:33:00;;;;;;;6.70;4.70;;;13.80;99.90;;;;;;5114605;28;20610;-53
2023/07/26 03:35:25;;;;;;;6.00;4.60;;;13.70;99.90;;;;;;5113766;28;20260;-52
2023/07/26 03:37:51;;;;;;;4.97;4.43;;;13.80;99.90;;;;;;5113779;28;20603;-49
2023/07/26 03:40:17;;;;;;;5.05;4.50;;;13.80;99.90;;;;;;5113658;28;20665;-50
2023/07/26 03:42:42;;;;;;;8.48;4.85;;;13.80;99.90;;;;;;5114180;28;20205;-52
2023/07/26 03:45:08;;;;;;;6.50;4.82;;;13.90;99.90;;;;;;5113940;28;20177;-48
2023/07/26 03:47:34;;;;;;;7.70;5.20;;;13.90;99.90;;;;;;5113831;28;20615;-53
2023/07/26 03:50:00;;;;;;;4.75;4.32;;;13.90;99.90;;;;;;5113922;28;20174;-50
2023/07/26 03:52:25;;;;;;;7.28;5.00;;;14.00;99.90;;;;;;5113845;28;20222;-54
2023/07/26 03:54:51;;;;;;;5.50;4.53;;;14.00;99.90;;;;;;5113885;28;20527;-50
2023/07/26 03:57:20;;;;;;;6.47;4.68;;;14.00;99.90;;;;;;5113736;28;20177;-52
2023/07/26 03:59:46;;;;;;;9.10;5.47;;;14.00;99.90;;;;;;5113845;28;20205;-51
2023/07/26 04:02:11;;;;;;;6.40;5.05;;;14.00;99.90;;;;;;5113774;28;20226;-53
2023/07/26 04:04:37;;;;;;;5.47;4.57;;;14.00;99.90;;;;;;5113825;28;20702;-51
2023/07/26 04:07:03;;;;;;;6.78;4.97;;;14.10;99.90;;;;;;5113684;28;20212;-53
2023/07/26 04:09:28;;;;;;;6.78;4.82;;;14.00;99.90;;;;;;5113779;28;20178;-53
2023/07/26 04:11:57;;;;;;;7.88;4.88;;;14.00;99.90;;;;;;5113761;28;20178;-52
2023/07/26 04:14:23;;;;;;;7.18;4.57;;;13.90;99.90;;;;;;5113435;28;20614;-51
2023/07/26 04:16:50;;;;;;;5.88;4.70;;;13.90;99.90;;;;;;5113616;28;20184;-53
2023/07/26 04:19:15;;;;;;;5.82;5.15;;;13.90;99.90;;;;;;5113258;28;20228;-52
2023/07/26 04:21:41;;;;;;;6.45;5.20;;;13.90;99.90;;;;;;5114863;28;20181;-51
2023/07/26 04:24:06;;;;;;;6.47;5.25;;;13.80;99.90;;;;;;5117607;28;20177;-52
2023/07/26 04:26:32;;;;;;;9.70;5.60;;;13.80;99.90;;;;;;5117486;28;20197;-54
2023/07/26 04:28:58;;;;;;;7.32;5.20;;;13.80;99.90;;;;;;5117552;28;20274;-52
2023/07/26 04:31:23;;;;;;;6.18;5.30;;;13.90;99.90;;;;;;5117459;28;20173;-53
2023/07/26 04:33:49;;;;;;;7.30;5.07;;;13.90;99.90;;;;;;5117136;28;20302;-51
2023/07/26 04:36:15;;;;;;;8.88;5.45;;;13.90;99.90;;;;;;5117405;28;20185;-52
2023/07/26 04:38:40;;;;;;;7.20;5.13;;;14.00;99.90;;;;;;5117421;28;20576;-50
2023/07/26 04:41:06;;;;;;;8.00;5.55;;;13.90;99.90;;;;;;5117269;28;20177;-52
2023/07/26 04:43:32;;;;;;;10.60;6.00;;;14.00;99.90;;;;;;5116044;28;20170;-52
2023/07/26 04:45:57;;;;;;;8.07;6.03;;;14.00;99.90;;;;;;5117012;28;20201;-54
2023/07/26 04:48:23;;;;;;;11.40;6.32;;;14.00;99.90;;;;;;5117181;28;20180;-52
2023/07/26 04:50:49;;;;;;;8.52;6.43;;;13.90;99.90;;;;;;5117178;28;20699;-52
2023/07/26 04:53:16;;;;;;;7.25;5.30;;;14.10;99.90;;;;;;5117006;28;20268;-53
2023/07/26 04:55:48;;;;;;;8.20;5.72;;;14.10;99.90;;;;;;5117084;28;20177;-53
2023/07/26 04:58:13;;;;;;;6.70;5.95;;;14.10;99.90;;;;;;5117210;28;20170;-51
2023/07/26 05:00:42;;;;;;;7.05;6.00;;;14.10;99.90;;;;;;5115657;28;20185;-51
2023/07/26 05:03:09;;;;;;;8.68;5.88;;;14.20;99.90;;;;;;5116914;28;20165;-55
2023/07/26 05:05:36;;;;;;;9.75;6.45;;;14.10;99.90;;;;;;5116805;28;20256;-53
2023/07/26 05:08:05;;;;;;;6.90;5.78;;;14.10;99.90;;;;;;5116456;28;20201;-50
2023/07/26 05:10:31;;;;;;;9.50;6.68;;;14.10;99.90;;;;;;5116799;28;20172;-49
2023/07/26 05:12:57;;;;;;;7.50;6.15;;;14.10;99.90;;;;;;5116674;28;20178;-53
2023/07/26 05:15:23;;;;;;;10.25;6.22;;;14.10;99.90;;;;;;5116950;28;20225;-52
2023/07/26 05:17:50;;;;;;;10.18;6.78;;;14.20;99.90;;;;;;5116574;28;20181;-49
2023/07/26 05:20:16;;;;;;;10.27;6.70;;;14.20;99.90;;;;;;5116788;28;20209;-52
2023/07/26 05:22:41;;;;;;;9.55;6.57;;;14.10;99.90;;;;;;5116196;28;20184;-51
2023/07/26 05:25:07;;;;;;;9.68;6.78;;;14.20;99.90;;;;;;5116184;28;20508;-52
2023/07/26 05:27:33;;;;;;;9.00;6.22;;;14.20;99.90;;;;;;5116341;28;20677;-51
2023/07/26 05:29:59;;;;;;;10.07;6.55;;;14.30;99.90;;;;;;5116364;28;20500;-50
2023/07/26 05:32:26;;;;;;;11.15;7.13;;;14.20;99.90;;;;;;5116078;28;20176;-50
2023/07/26 05:34:56;;;;;;;9.25;6.50;;;14.30;99.90;;;;;;5115959;28;20177;-52
2023/07/26 05:37:22;;;;;;;10.20;7.35;;;14.30;99.90;;;;;;5115914;28;20177;-52
2023/07/26 05:39:49;;;;;;;9.35;7.03;;;14.40;99.90;;;;;;5115941;28;20577;-52
2023/07/26 05:42:14;;;;;;;11.70;7.90;;;14.40;99.90;;;;;;5116128;28;20170;-53
2023/07/26 05:44:40;;;;;;;11.55;7.88;;;14.50;99.90;;;;;;5116123;28;20180;-54
2023/07/26 05:47:06;;;;;;;12.82;7.50;;;14.70;99.90;;;;;;5115920;28;20303;-53
2023/07/26 05:49:31;;;;;;;10.20;7.32;;;14.70;99.90;;;;;;5115985;28;20583;-51
2023/07/26 05:51:59;;;;;;;11.65;7.60;;;14.90;99.90;;;;;;5115609;28;20177;-54
2023/07/26 05:54:25;;;;;;;11.52;7.07;;;14.90;99.90;;;;;;5115790;28;20173;-53
2023/07/26 05:56:50;;;;;;;10.55;8.13;;;15.00;99.90;;;;;;5114223;28;20181;-51
2023/07/26 05:59:16;;;;;;;13.30;7.90;;;15.20;99.90;;;;;;5115622;28;20177;-52
2023/07/26 06:01:42;;;;;;;9.20;7.20;;;15.20;99.90;;;;;;5115695;28;20170;-53
2023/07/26 06:04:07;;;;;;;10.00;6.57;;;15.30;99.90;;;;;;5115716;28;20174;-50
2023/07/26 06:06:33;;;;;;;8.75;6.95;;;15.40;99.90;;;;;;5115221;28;20201;-51
2023/07/26 06:08:59;;;;;;;12.15;7.45;;;15.40;99.90;;;;;;5115539;28;20184;-50
2023/07/26 06:11:24;;;;;;;9.25;6.45;;;15.40;99.90;;;;;;5115523;28;20173;-53
2023/07/26 06:13:50;;;;;;;7.07;6.32;;;15.50;99.90;;;;;;5114287;28;20181;-50
2023/07/26 06:16:16;;;;;;;8.27;6.45;;;15.60;99.90;;;;;;5115383;28;20230;-51
2023/07/26 06:18:42;;;;;;;8.98;7.10;;;15.80;99.90;;;;;;5115133;28;20274;-54
2023/07/26 06:21:07;;;;;;;11.77;7.30;;;16.00;99.90;;;;;;5115352;28;20169;-51
2023/07/26 06:23:33;;;;;;;12.05;7.75;;;16.00;99.90;;;;;;5115304;28;20221;-52
2023/07/26 06:25:59;;;;;;;9.95;7.40;;;16.30;99.90;;;;;;5115140;28;20256;-54
2023/07/26 06:28:24;;;;;;;10.60;7.35;;;16.50;99.90;;;;;;5115214;28;20580;-50
2023/07/26 06:30:50;;;;;;;14.50;8.02;;;16.70;99.90;;;;;;5115208;28;20230;-52
2023/07/26 06:33:16;;;;;;;11.77;7.85;;;16.80;99.90;;;;;;5115170;27;20644;-54
2023/07/26 06:35:41;;;;;;;11.55;7.75;;;16.70;99.90;;;;;;5115209;28;20165;-53
2023/07/26 06:38:09;;;;;;;9.20;7.55;;;16.70;99.90;;;;;;5115011;28;20184;-52
2023/07/26 06:40:34;;;;;;;9.35;7.80;;;16.70;99.90;;;;;;5114960;28;20259;-52
2023/07/26 06:43:00;;;;;;;11.13;7.63;;;16.70;99.90;;;;;;5114905;28;20216;-53
2023/07/26 06:45:25;;;;;;;12.77;7.63;;;16.60;99.90;;;;;;5114921;28;20649;-53
2023/07/26 06:47:51;;;;;;;11.85;8.07;;;16.60;99.90;;;;;;5114757;28;20197;-53
2023/07/26 06:50:17;;;;;;;13.50;8.00;;;16.70;99.90;;;;;;5114820;28;20177;-53
2023/07/26 06:52:42;;;;;;;10.25;8.20;;;16.60;99.90;;;;;;5114445;28;20665;-53
2023/07/26 06:55:08;;;;;;;12.20;9.02;;;16.70;99.90;;;;;;5114643;28;20180;-53
2023/07/26 06:57:33;;;;;;;13.40;8.05;;;16.70;99.90;;;;;;5114665;28;20630;-54
2023/07/26 06:59:59;;;;;;;11.57;8.82;;;16.70;99.90;;;;;;5114516;28;20169;-50
2023/07/26 07:02:25;;;;;;;11.80;8.32;;;16.80;99.90;;;;;;5114565;28;20173;-54
2023/07/26 07:04:50;;;;;;;10.98;8.40;;;17.10;99.90;;;;;;5114248;28;20665;-53
2023/07/26 07:07:16;;;;;;;11.20;8.63;;;17.30;99.90;;;;;;5114399;28;20208;-50
2023/07/26 07:09:42;;;;;;;11.80;7.72;;;17.30;99.90;;;;;;5114462;28;20268;-52
2023/07/26 07:12:09;;;;;;;12.65;8.73;;;17.50;99.90;;;;;;5114397;28;20216;-50
2023/07/26 07:14:35;;;;;;;10.77;8.40;;;17.60;99.90;;;;;;5114485;28;20173;-54
2023/07/26 07:17:00;;;;;;;14.55;8.68;;;17.70;99.90;;;;;;5114328;28;20184;-52
2023/07/26 07:19:26;;;;;;;13.13;8.43;;;17.80;99.90;;;;;;5114250;28;20221;-52
2023/07/26 07:21:52;;;;;;;9.65;8.02;;;17.80;99.90;;;;;;5113888;28;20184;-49
2023/07/26 07:24:18;;;;;;;12.75;7.93;;;17.80;99.90;;;;;;5114485;28;20169;-52
2023/07/26 07:26:44;;;;;;;9.40;7.32;;;18.00;99.90;;;;;;5114192;28;20658;-52
2023/07/26 07:29:09;;;;;;;9.65;7.00;;;18.20;99.90;;;;;;5114058;28;20192;-51
2023/07/26 07:31:35;;;;;;;10.68;6.70;;;18.10;99.90;;;;;;5114127;28;20177;-52
2023/07/26 07:34:00;;;;;;;10.07;7.00;;;18.20;99.90;;;;;;5113822;28;20182;-53
2023/07/26 07:36:26;;;;;;;9.63;7.18;;;18.40;99.90;;;;;;5114033;28;20588;-52
2023/07/26 07:38:52;;;;;;;11.02;7.95;;;18.60;99.90;;;;;;5114042;28;20177;-52
2023/07/26 07:41:17;;;;;;;11.85;8.00;;;18.80;99.90;;;;;;5114218;28;20173;-49
2023/07/26 07:43:43;;;;;;;10.50;7.25;;;18.90;99.90;;;;;;5113996;28;20223;-51
2023/07/26 07:46:09;;;;;;;9.32;6.25;;;18.90;99.90;;;;;;5113899;28;20287;-49
2023/07/26 07:48:36;;;;;;;7.55;5.47;;;18.90;99.90;;;;;;5113937;28;20174;-53
2023/07/26 07:51:02;;;;;;;6.85;5.43;;;19.10;99.90;;;;;;5113909;28;20165;-52
2023/07/26 07:53:28;;;;;;;7.95;4.97;;;19.30;99.90;;;;;;5113906;28;20218;-53
2023/07/26 07:55:56;;;;;;;9.23;5.15;;;19.40;99.90;;;;;;5113947;28;20214;-51
2023/07/26 07:58:22;;;;;;;9.10;5.75;;;19.50;99.90;;;;;;5116852;28;20525;-51
2023/07/26 08:00:47;;;;;;;7.93;4.82;;;19.50;99.90;;;;;;5118079;28;20169;-49
2023/07/26 08:03:13;;;;;;;7.25;5.45;;;19.60;99.90;;;;;;5118037;28;20652;-51
2023/07/26 08:05:39;;;;;;;8.88;4.78;;;19.60;99.90;;;;;;5118036;28;20740;-51
2023/07/26 08:08:06;;;;;;;7.50;5.50;;;19.70;99.90;;;;;;5117901;28;20734;-48
2023/07/26 08:10:31;;;;;;;7.93;5.53;;;19.60;99.90;;;;;;5117851;28;20242;-49
2023/07/26 08:12:57;;;;;;;7.00;5.20;;;19.70;99.90;;;;;;5117871;28;20173;-50
2023/07/26 08:15:22;;;;;;;8.02;4.85;;;20.00;99.90;;;;;;5117794;28;20181;-52
2023/07/26 08:17:48;;;;;;;7.35;5.35;;;20.10;99.90;;;;;;5117776;28;20176;-49
2023/07/26 08:20:14;;;;;;;8.30;5.32;;;20.20;99.90;;;;;;5117377;28;20632;-51
2023/07/26 08:22:40;;;;;;;7.75;4.93;;;20.30;99.90;;;;;;5117702;28;20614;-49
2023/07/26 08:25:06;;;;;;;7.80;4.85;;;20.30;99.90;;;;;;5117644;28;20226;-51
2023/07/26 08:27:32;;;;;;;7.85;5.60;;;20.40;99.90;;;;;;5116361;28;20280;-49
2023/07/26 08:29:57;;;;;;;7.80;5.70;;;20.50;99.90;;;;;;5116308;28;20268;-52
2023/07/26 08:32:23;;;;;;;7.60;5.28;;;20.60;99.90;;;;;;5117494;28;20201;-52
2023/07/26 08:34:49;;;;;;;7.90;5.38;;;20.60;99.90;;;;;;5117715;28;20177;-52
2023/07/26 08:37:15;;;;;;;8.55;4.97;;;20.30;99.90;;;;;;5117400;28;20211;-54
2023/07/26 08:39:40;;;;;;;8.98;4.50;;;20.20;99.90;;;;;;5117399;28;20310;-53
2023/07/26 08:42:07;;;;;;;8.85;4.45;;;20.20;99.90;;;;;;5117395;28;20271;-50
2023/07/26 08:44:33;;;;;;;5.30;3.83;;;20.20;99.90;;;;;;5117262;28;20170;-49
2023/07/26 08:47:03;;;;;;;5.93;3.90;;;20.20;99.90;;;;;;5117243;28;20237;-53
2023/07/26 08:49:29;;;;;;;6.10;4.47;;;20.20;99.90;;;;;;5117521;28;20508;-53
2023/07/26 08:51:57;;;;;;;7.68;4.30;;;20.40;99.90;;;;;;5117093;28;20185;-49
2023/07/26 08:54:26;;;;;;;5.47;4.05;;;20.70;99.90;;;;;;5116820;28;20622;-51
2023/07/26 08:56:53;;;;;;;5.85;4.05;;;20.70;99.90;;;;;;5117299;28;20273;-50
2023/07/26 08:59:18;;;;;;;5.63;4.10;;;21.00;99.90;;;;;;5117019;28;20233;-51
2023/07/26 09:01:44;;;;;;;6.75;4.88;;;20.90;99.90;;;;;;5116967;28;20177;-52
2023/07/26 09:04:10;;;;;;;5.65;4.00;;;20.90;99.90;;;;;;5116959;28;20618;-51
2023/07/26 09:06:44;;;;;;;5.07;4.05;;;21.10;99.90;;;;;;5116724;28;20205;-53
2023/07/26 09:09:11;;;;;;;6.40;3.90;;;21.20;99.90;;;;;;5115383;28;20161;-50
2023/07/26 09:11:49;;;;;;;4.80;3.83;;;21.10;99.90;;;;;;5116801;28;20576;-49
2023/07/26 09:14:15;;;;;;;5.75;3.92;;;21.20;99.90;;;;;;5116758;28;20242;-51
2023/07/26 09:16:41;;;;;;;5.18;3.97;;;21.40;99.90;;;;;;5116666;28;20669;-53
2023/07/26 09:19:06;;;;;;;5.75;3.60;;;21.40;99.90;;;;;;5116490;28;20224;-53
2023/07/26 09:21:34;;;;;;;4.82;3.78;;;21.20;99.90;;;;;;5116559;28;20165;-54
2023/07/26 09:24:02;;;;;;;4.30;3.80;;;20.80;99.90;;;;;;5116502;28;20314;-52
2023/07/26 09:26:42;;;;;;;7.45;4.03;;;20.50;99.90;;;;;;5116311;28;20201;-54
2023/07/26 09:29:12;;;;;;;5.70;4.22;;;20.10;99.90;;;;;;5116313;28;20181;-53
2023/07/26 09:31:41;;;;;;;3.97;3.53;;;19.90;99.90;;;;;;5116290;28;20173;-54
2023/07/26 09:34:08;;;;;;;5.25;3.95;;;19.80;99.90;;;;;;5115119;28;20511;-52
2023/07/26 09:36:48;;;;;;;6.25;3.88;;;19.90;99.90;;;;;;5116224;28;20180;-53
2023/07/26 09:39:15;;;;;;;6.15;3.50;;;20.10;99.90;;;;;;5116253;28;20194;-53
2023/07/26 09:41:42;;;;;;;5.05;3.58;;;20.40;99.90;;;;;;5115934;27;20181;-53
2023/07/26 09:44:18;;;;;;;4.10;3.55;;;20.80;99.90;;;;;;5115536;28;20634;-54
2023/07/26 09:46:52;;;;;;;5.00;2.88;;;21.20;99.90;;;;;;5115791;28;20216;-53
2023/07/26 09:49:22;;;;;;;2.90;2.30;;;21.40;99.90;;;;;;5116116;28;20162;-53
2023/07/26 09:51:53;;;;;;;3.22;2.47;;;21.70;99.90;;;;;;5115967;28;20204;-54
2023/07/26 09:54:23;;;;;;;4.50;2.72;;;21.70;99.90;;;;;;5115968;28;20162;-52
2023/07/26 09:56:50;;;;;;;2.67;1.98;;;21.90;99.90;;;;;;5115843;28;20185;-53
2023/07/26 09:59:17;;;;;;;4.40;2.60;;;21.80;99.90;;;;;;5115920;28;20197;-50
2023/07/26 10:01:44;;;;;;;4.80;2.50;;;22.00;99.90;;;;;;5115794;28;20689;-53
2023/07/26 10:04:21;;;;;;;2.92;2.45;;;21.80;99.90;;;;;;5115729;28;20187;-53
2023/07/26 10:06:51;;;;;;;3.28;2.40;;;21.30;99.90;;;;;;5115351;28;20592;-52
2023/07/26 10:09:16;;;;;;;4.30;2.80;;;21.10;99.90;;;;;;5115617;27;20370;-54
2023/07/26 10:11:43;;;;;;;6.80;3.03;;;21.30;99.90;;;;;;5115596;28;20610;-51
2023/07/26 10:14:12;;;;;;;4.68;3.08;;;21.50;99.90;;;;;;5115440;28;20658;-52
2023/07/26 10:16:39;;;;;;;4.28;2.80;;;21.80;99.90;;;;;;5115561;28;20203;-53
2023/07/26 10:19:06;;;;;;;3.60;2.45;;;22.00;99.90;;;;;;5114360;28;20631;-50
2023/07/26 10:21:35;;;;;;;4.25;2.42;;;22.10;99.90;;;;;;5115359;28;20177;-52
2023/07/26 10:24:04;;;;;;;4.32;2.80;;;22.30;99.90;;;;;;5115292;28;20309;-53
2023/07/26 10:26:32;;;;;;;4.32;2.75;;;22.40;99.90;;;;;;5115140;28;20698;-52
2023/07/26 10:29:02;;;;;;;3.95;2.58;;;22.20;99.90;;;;;;5115606;28;20184;-53
2023/07/26 10:31:30;;;;;;;3.80;2.70;;;22.30;99.90;;;;;;5115136;28;20177;-54
2023/07/26 10:33:58;;;;;;;3.80;2.38;;;22.30;99.90;;;;;;5115187;28;20166;-52
2023/07/26 10:36:30;;;;;;;2.70;2.40;;;22.40;99.40;;;;;;5115066;27;20260;-53
2023/07/26 10:38:56;;;;;;;4.28;2.47;;;22.50;99.90;;;;;;5115114;28;20307;-53
2023/07/26 10:41:27;;;;;;;5.80;2.97;;;22.70;99.90;;;;;;5114959;28;20248;-50
2023/07/26 10:44:04;;;;;;;3.90;2.83;;;22.60;99.70;;;;;;5115004;28;20189;-54
2023/07/26 10:46:55;;;;;;;3.97;2.60;;;22.30;99.70;;;;;;5114842;28;20249;-50
2023/07/26 10:49:28;;;;;;;4.38;2.72;;;22.30;99.90;;;;;;5103603;28;20189;-51
2023/07/26 10:52:00;;;;;;;3.88;2.80;;;22.40;99.90;;;;;;5114809;28;20165;-53
2023/07/26 10:54:39;;;;;;;4.55;2.70;;;22.60;99.90;;;;;;5114404;28;20268;-53
2023/07/26 10:57:26;;;;;;;3.15;2.30;;;22.70;99.50;;;;;;5114842;28;20218;-52
2023/07/26 11:00:14;;;;;;;4.63;2.63;;;22.80;99.60;;;;;;5114652;28;20169;-55
2023/07/26 11:03:00;;;;;;;4.20;3.03;;;22.70;99.40;;;;;;5114606;28;20191;-52
2023/07/26 11:05:29;;;;;;;4.35;2.95;;;22.60;99.60;;;;;;5114638;28;20173;-53
2023/07/26 11:08:04;;;;;;;5.15;3.45;;;22.60;99.90;;;;;;5114455;28;20549;-52
2023/07/26 11:10:32;;;;;;;4.88;3.20;;;22.60;99.90;;;;;;5114493;28;20199;-54
2023/07/26 11:13:15;;;;;;;3.55;2.80;;;22.70;99.90;;;;;;5114332;28;20166;-53
2023/07/26 11:15:50;;;;;;;3.17;2.88;;;22.80;99.90;;;;;;5114386;28;20178;-54
2023/07/26 11:18:19;;;;;;;2.75;2.50;;;22.80;99.70;;;;;;5114227;28;20653;-52
2023/07/26 11:20:50;;;;;;;3.30;2.55;;;22.90;99.60;;;;;;5114308;28;20261;-52
2023/07/26 11:23:27;;;;;;;3.40;2.88;;;23.00;99.00;;;;;;5114334;28;20172;-51
2023/07/26 11:26:01;;;;;;;2.85;2.53;;;23.10;98.90;;;;;;5114341;28;20169;-53
2023/07/26 11:28:34;;;;;;;4.82;2.25;;;23.40;99.20;;;;;;5114299;28;20246;-52
2023/07/26 11:31:00;;;;;;;3.55;2.47;;;23.50;99.00;;;;;;5113414;28;20193;-53
2023/07/26 11:33:30;;;;;;;2.40;2.13;;;23.50;98.00;;;;;;5114245;28;20572;-51
2023/07/26 11:35:56;;;;;;;4.40;2.28;;;23.50;99.00;;;;;;5113825;28;20575;-53
2023/07/26 11:38:21;;;;;;;2.03;1.92;;;23.50;98.90;;;;;;5113787;28;20173;-54
2023/07/26 11:40:50;;;;;;;2.88;2.13;;;23.60;97.50;;;;;;5114014;28;20218;-51
2023/07/26 11:43:16;;;;;;;3.03;2.42;;;23.50;97.00;;;;;;5114035;28;20196;-51
2023/07/26 11:45:43;;;;;;;3.45;2.78;;;23.60;97.40;;;;;;5113955;28;20165;-51
2023/07/26 11:48:10;;;;;;;2.80;2.30;;;23.30;97.80;;;;;;5113852;28;20212;-50
2023/07/26 11:50:37;;;;;;;3.80;2.40;;;23.30;98.80;;;;;;5113903;28;20176;-54
2023/07/26 11:53:11;;;;;;;4.15;2.42;;;23.10;98.50;;;;;;5113911;28;20177;-53
2023/07/26 11:55:42;;;;;;;3.45;2.50;;;23.10;98.70;;;;;;5113941;28;20176;-53
2023/07/26 11:58:09;;;;;;;3.10;2.45;;;23.00;98.60;;;;;;5114022;28;20161;-53
2023/07/26 12:00:46;;;;;;;3.13;2.50;;;23.10;98.00;;;;;;5113901;28;20503;-55
2023/07/26 12:03:12;;;;;;;4.80;2.60;;;23.00;97.90;;;;;;5113868;28;20157;-53
2023/07/26 12:05:42;;;;;;;5.10;2.30;;;22.70;98.30;;;;;;5113804;28;20568;-51
2023/07/26 12:08:08;;;;;;;2.63;2.30;;;22.30;99.80;;;;;;5113761;28;20515;-55
2023/07/26 12:10:40;;;;;;;4.40;2.72;;;22.10;98.30;;;;;;5114042;28;20188;-52
2023/07/26 12:13:08;;;;;;;4.25;2.67;;;22.10;99.00;;;;;;5113829;28;20165;-54
2023/07/26 12:16:00;;;;;;;2.65;2.30;;;22.50;98.70;;;;;;5113725;28;20223;-54
2023/07/26 12:18:27;;;;;;;4.05;2.40;;;22.90;98.90;;;;;;5113524;28;20276;-50
2023/07/26 12:21:07;;;;;;;3.97;2.47;;;23.00;98.00;;;;;;5113725;28;20161;-54
2023/07/26 12:23:59;;;;;;;3.53;2.47;;;23.10;98.30;;;;;;5113536;28;20162;-54
2023/07/26 12:26:31;;;;;;;3.47;2.40;;;23.00;97.50;;;;;;5113598;28;20189;-53
2023/07/26 12:28:58;;;;;;;2.40;2.20;;;22.50;98.40;;;;;;5113669;28;20177;-53
2023/07/26 12:31:29;;;;;;;3.33;2.63;;;22.30;99.60;;;;;;5113598;28;20201;-53
2023/07/26 12:33:57;;;;;;;2.63;2.30;;;22.20;99.70;;;;;;5113638;28;20170;-52
2023/07/26 12:36:25;;;;;;;3.65;2.25;;;22.00;99.90;;;;;;5113531;28;20533;-48
2023/07/26 12:38:50;;;;;;;4.00;2.33;;;21.90;99.90;;;;;;5113746;28;20166;-54
2023/07/26 12:41:16;;;;;;;2.53;2.20;;;21.80;99.90;;;;;;5113476;28;20644;-53
2023/07/26 12:43:43;;;;;;;2.83;2.60;;;21.70;99.40;;;;;;5116280;28;20172;-53
2023/07/26 12:46:09;;;;;;;3.28;2.35;;;21.50;99.40;;;;;;5117179;28;20193;-54